Impacts METAR Board
IDs:

KLBX - Angleton/Texas Gulf, TX, US

Updated at: 0600 UTC 19 Aug 2019
Potential Impact None Slight Moderate High
Time 18/18Z 18/19Z 18/20Z 18/21Z 18/22Z 18/23Z 19/00Z 19/01Z 19/02Z 19/03Z 19/04Z 19/05Z 19/06Z
Temp94 93 94 92 91 91 89 86 85 83 81 83 82
Dewpt76 76 76 76 76 76 76 77 76 76 76 77 77
Altim29.93 29.93 29.92 29.90 29.90 29.90 29.90 29.91 29.92 29.93 29.93 29.94 29.94
VIS10 10 10 10 10 10 10 10 10 10 10 10 10
CIG-- -- -- -- 43 -- -- -- -- -- -- -- --
CoverFEWFEWCLRFEWBKNCLRCLRFEWCLRCLRCLRCLRFEW
FltCatVFRVFRVFRVFRVFRVFRVFRVFRVFRVFRVFRVFRVFR
WX--------------------------
WDir180190180190170170190160150160160160160
WSpd16 15 14 15 12 15 9 10 6 4 6 7 4
WGst20 21 19 -- -- -- -- -- -- -- -- -- --
Raw hourly METARs
KLBX 181753Z AUTO 18016G20KT 10SM FEW034 34/24 A2993 RMK AO2 SLP136 60000 T03440244 10344 20278 50003
KLBX 181853Z AUTO 19015G21KT 10SM FEW037 34/24 A2993 RMK AO2 SLP135 T03390244
KLBX 181953Z AUTO 18014G19KT 10SM CLR 34/24 A2992 RMK AO2 SLP132 T03440244
KLBX 182053Z AUTO 19015KT 10SM FEW031 33/24 A2990 RMK AO2 SLP124 T03330244 58012
KLBX 182153Z AUTO 17012KT 10SM SCT034 BKN043 33/24 A2990 RMK AO2 SLP124 T03280244
KLBX 182253Z AUTO 17015KT 10SM CLR 33/24 A2990 RMK AO2 SLP124 T03280244
KLBX 182353Z AUTO 19009KT 10SM CLR 32/24 A2990 RMK AO2 SLP124 T03170244 10350 20317 50000
KLBX 190053Z AUTO 16010KT 10SM FEW025 30/25 A2991 RMK AO2 SLP127 T03000250
KLBX 190153Z AUTO 15006KT 10SM CLR 29/24 A2992 RMK AO2 SLP130 T02940244
KLBX 190253Z AUTO 16004KT 10SM CLR 28/24 A2993 RMK AO2 SLP134 T02830244 51010
KLBX 190353Z AUTO 16006KT 10SM CLR 27/24 A2993 RMK AO2 SLP135 T02720244
KLBX 190453Z AUTO 16007KT 10SM CLR 28/25 A2994 RMK AO2 SLP137 T02830250
KLBX 190553Z AUTO 16004KT 10SM FEW024 28/25 A2994 RMK AO2 SLP138 T02780250 10317 20272 403500267 51005



Page loaded:  06:17 UTC  |   11:17 PM Pacific  |   12:17 AM Mountain  |   01:17 AM Central  |   02:17 AM Eastern

 

ADVISORIES

FORECASTS

FORECASTS

OBSERVATIONS

USER TOOLS

ABOUT US